sensor_id;sensor_type;location;lat;lon;timestamp;P1;durP1;ratioP1;P2;durP2;ratioP2
32365;SDS011;18837;46.832;16.838;2023-05-29T00:00:13;6.73;;;5.27;;
32365;SDS011;18837;46.832;16.838;2023-05-29T00:02:41;5.87;;;5.27;;
32365;SDS011;18837;46.832;16.838;2023-05-29T00:05:09;6.37;;;5.27;;
32365;SDS011;18837;46.832;16.838;2023-05-29T00:07:37;5.70;;;5.13;;
32365;SDS011;18837;46.832;16.838;2023-05-29T00:10:03;7.87;;;5.47;;
32365;SDS011;18837;46.832;16.838;2023-05-29T00:12:30;5.40;;;4.80;;
32365;SDS011;18837;46.832;16.838;2023-05-29T00:14:56;6.50;;;5.03;;
32365;SDS011;18837;46.832;16.838;2023-05-29T00:17:22;6.13;;;5.53;;
32365;SDS011;18837;46.832;16.838;2023-05-29T00:19:49;6.83;;;5.00;;
32365;SDS011;18837;46.832;16.838;2023-05-29T00:22:14;5.20;;;4.50;;
32365;SDS011;18837;46.832;16.838;2023-05-29T00:24:40;6.47;;;5.53;;
32365;SDS011;18837;46.832;16.838;2023-05-29T00:27:06;5.73;;;5.23;;
32365;SDS011;18837;46.832;16.838;2023-05-29T00:29:34;6.87;;;5.17;;
32365;SDS011;18837;46.832;16.838;2023-05-29T00:32:00;5.57;;;4.97;;
32365;SDS011;18837;46.832;16.838;2023-05-29T00:34:27;8.07;;;5.23;;
32365;SDS011;18837;46.832;16.838;2023-05-29T00:36:52;5.60;;;5.00;;
32365;SDS011;18837;46.832;16.838;2023-05-29T00:39:20;7.57;;;5.40;;
32365;SDS011;18837;46.832;16.838;2023-05-29T00:41:47;5.20;;;4.70;;
32365;SDS011;18837;46.832;16.838;2023-05-29T00:44:19;6.07;;;5.17;;
32365;SDS011;18837;46.832;16.838;2023-05-29T00:46:46;5.63;;;5.03;;
32365;SDS011;18837;46.832;16.838;2023-05-29T00:49:14;5.40;;;4.90;;
32365;SDS011;18837;46.832;16.838;2023-05-29T00:51:40;9.87;;;6.17;;
32365;SDS011;18837;46.832;16.838;2023-05-29T00:54:07;5.60;;;4.90;;
32365;SDS011;18837;46.832;16.838;2023-05-29T00:56:37;5.90;;;5.30;;
32365;SDS011;18837;46.832;16.838;2023-05-29T00:59:04;5.80;;;5.30;;
32365;SDS011;18837;46.832;16.838;2023-05-29T01:01:31;5.80;;;4.93;;
32365;SDS011;18837;46.832;16.838;2023-05-29T01:03:57;6.63;;;5.00;;
32365;SDS011;18837;46.832;16.838;2023-05-29T01:06:25;5.90;;;5.30;;
32365;SDS011;18837;46.832;16.838;2023-05-29T01:08:51;5.77;;;4.90;;
32365;SDS011;18837;46.832;16.838;2023-05-29T01:14:07;6.00;;;5.23;;
32365;SDS011;18837;46.832;16.838;2023-05-29T01:19:46;6.10;;;5.20;;
32365;SDS011;18837;46.832;16.838;2023-05-29T01:25:02;5.93;;;4.83;;
32365;SDS011;18837;46.832;16.838;2023-05-29T01:27:44;5.70;;;5.07;;
32365;SDS011;18837;46.832;16.838;2023-05-29T01:30:12;6.40;;;5.30;;
32365;SDS011;18837;46.832;16.838;2023-05-29T01:32:39;5.63;;;5.13;;
32365;SDS011;18837;46.832;16.838;2023-05-29T01:35:06;5.63;;;4.87;;
32365;SDS011;18837;46.832;16.838;2023-05-29T01:37:33;5.77;;;5.00;;
32365;SDS011;18837;46.832;16.838;2023-05-29T01:39:59;6.53;;;5.40;;
32365;SDS011;18837;46.832;16.838;2023-05-29T01:42:26;6.27;;;5.33;;
32365;SDS011;18837;46.832;16.838;2023-05-29T01:44:52;5.40;;;4.90;;
32365;SDS011;18837;46.832;16.838;2023-05-29T01:47:19;5.70;;;5.10;;
32365;SDS011;18837;46.832;16.838;2023-05-29T01:49:45;5.57;;;5.07;;
32365;SDS011;18837;46.832;16.838;2023-05-29T01:52:14;7.60;;;5.37;;
32365;SDS011;18837;46.832;16.838;2023-05-29T01:54:40;6.43;;;5.23;;
32365;SDS011;18837;46.832;16.838;2023-05-29T01:57:06;5.93;;;5.33;;
32365;SDS011;18837;46.832;16.838;2023-05-29T01:59:32;6.07;;;5.40;;
32365;SDS011;18837;46.832;16.838;2023-05-29T02:02:09;6.27;;;5.27;;
32365;SDS011;18837;46.832;16.838;2023-05-29T02:04:36;7.10;;;5.23;;
32365;SDS011;18837;46.832;16.838;2023-05-29T02:07:03;5.83;;;5.23;;
32365;SDS011;18837;46.832;16.838;2023-05-29T02:09:29;5.83;;;4.97;;
32365;SDS011;18837;46.832;16.838;2023-05-29T02:11:55;5.83;;;5.20;;
32365;SDS011;18837;46.832;16.838;2023-05-29T02:14:21;5.27;;;4.67;;
32365;SDS011;18837;46.832;16.838;2023-05-29T02:16:49;6.77;;;5.60;;
32365;SDS011;18837;46.832;16.838;2023-05-29T02:19:17;6.13;;;5.07;;
32365;SDS011;18837;46.832;16.838;2023-05-29T02:21:43;6.50;;;5.17;;
32365;SDS011;18837;46.832;16.838;2023-05-29T02:24:09;6.40;;;5.13;;
32365;SDS011;18837;46.832;16.838;2023-05-29T02:26:35;5.90;;;5.00;;
32365;SDS011;18837;46.832;16.838;2023-05-29T02:29:05;5.63;;;4.93;;
32365;SDS011;18837;46.832;16.838;2023-05-29T02:31:31;6.47;;;4.90;;
32365;SDS011;18837;46.832;16.838;2023-05-29T02:33:57;5.87;;;5.13;;
32365;SDS011;18837;46.832;16.838;2023-05-29T02:36:22;5.83;;;5.20;;
32365;SDS011;18837;46.832;16.838;2023-05-29T02:38:48;5.57;;;5.07;;
32365;SDS011;18837;46.832;16.838;2023-05-29T02:41:14;5.30;;;4.80;;
32365;SDS011;18837;46.832;16.838;2023-05-29T02:43:40;5.70;;;5.10;;
32365;SDS011;18837;46.832;16.838;2023-05-29T02:46:06;5.63;;;5.07;;
32365;SDS011;18837;46.832;16.838;2023-05-29T02:48:31;6.30;;;5.27;;
32365;SDS011;18837;46.832;16.838;2023-05-29T02:50:57;6.13;;;4.73;;
32365;SDS011;18837;46.832;16.838;2023-05-29T02:53:23;6.77;;;4.77;;
32365;SDS011;18837;46.832;16.838;2023-05-29T02:55:48;7.50;;;4.90;;
32365;SDS011;18837;46.832;16.838;2023-05-29T02:58:16;5.80;;;5.20;;
32365;SDS011;18837;46.832;16.838;2023-05-29T03:00:42;5.43;;;4.67;;
32365;SDS011;18837;46.832;16.838;2023-05-29T03:03:08;6.60;;;5.43;;
32365;SDS011;18837;46.832;16.838;2023-05-29T03:05:34;5.60;;;5.10;;
32365;SDS011;18837;46.832;16.838;2023-05-29T03:08:00;5.27;;;4.73;;
32365;SDS011;18837;46.832;16.838;2023-05-29T03:10:27;6.47;;;5.03;;
32365;SDS011;18837;46.832;16.838;2023-05-29T03:12:53;7.77;;;4.87;;
32365;SDS011;18837;46.832;16.838;2023-05-29T03:15:19;6.07;;;5.10;;
32365;SDS011;18837;46.832;16.838;2023-05-29T03:17:45;5.93;;;5.37;;
32365;SDS011;18837;46.832;16.838;2023-05-29T03:20:12;8.10;;;5.27;;
32365;SDS011;18837;46.832;16.838;2023-05-29T03:22:38;5.73;;;4.57;;
32365;SDS011;18837;46.832;16.838;2023-05-29T03:25:05;5.47;;;4.97;;
32365;SDS011;18837;46.832;16.838;2023-05-29T03:27:31;7.37;;;5.40;;
32365;SDS011;18837;46.832;16.838;2023-05-29T03:29:58;7.93;;;5.10;;
32365;SDS011;18837;46.832;16.838;2023-05-29T03:32:24;6.33;;;4.63;;
32365;SDS011;18837;46.832;16.838;2023-05-29T03:34:50;5.53;;;4.80;;
32365;SDS011;18837;46.832;16.838;2023-05-29T03:37:16;6.33;;;5.43;;
32365;SDS011;18837;46.832;16.838;2023-05-29T03:39:42;7.00;;;5.40;;
32365;SDS011;18837;46.832;16.838;2023-05-29T03:42:08;5.77;;;5.17;;
32365;SDS011;18837;46.832;16.838;2023-05-29T03:44:33;5.60;;;4.87;;
32365;SDS011;18837;46.832;16.838;2023-05-29T03:46:59;6.03;;;5.07;;
32365;SDS011;18837;46.832;16.838;2023-05-29T03:49:25;5.77;;;4.90;;
32365;SDS011;18837;46.832;16.838;2023-05-29T03:51:50;6.13;;;5.53;;
32365;SDS011;18837;46.832;16.838;2023-05-29T03:54:16;6.90;;;5.03;;
32365;SDS011;18837;46.832;16.838;2023-05-29T03:56:42;5.53;;;4.97;;
32365;SDS011;18837;46.832;16.838;2023-05-29T03:59:08;5.83;;;5.23;;
32365;SDS011;18837;46.832;16.838;2023-05-29T04:01:33;6.57;;;5.43;;
32365;SDS011;18837;46.832;16.838;2023-05-29T04:03:59;5.17;;;4.67;;
32365;SDS011;18837;46.832;16.838;2023-05-29T04:06:25;5.83;;;5.20;;
32365;SDS011;18837;46.832;16.838;2023-05-29T04:08:51;5.33;;;4.83;;
32365;SDS011;18837;46.832;16.838;2023-05-29T04:11:17;5.90;;;4.83;;
32365;SDS011;18837;46.832;16.838;2023-05-29T04:13:46;5.70;;;5.10;;
32365;SDS011;18837;46.832;16.838;2023-05-29T04:16:12;6.77;;;5.20;;
32365;SDS011;18837;46.832;16.838;2023-05-29T04:18:39;4.93;;;4.43;;
32365;SDS011;18837;46.832;16.838;2023-05-29T04:21:05;5.70;;;4.80;;
32365;SDS011;18837;46.832;16.838;2023-05-29T04:23:31;7.10;;;4.90;;
32365;SDS011;18837;46.832;16.838;2023-05-29T04:25:57;6.00;;;5.30;;
32365;SDS011;18837;46.832;16.838;2023-05-29T04:28:22;5.97;;;4.83;;
32365;SDS011;18837;46.832;16.838;2023-05-29T04:30:49;7.60;;;5.27;;
32365;SDS011;18837;46.832;16.838;2023-05-29T04:33:15;5.07;;;4.57;;
32365;SDS011;18837;46.832;16.838;2023-05-29T04:35:42;7.23;;;4.87;;
32365;SDS011;18837;46.832;16.838;2023-05-29T04:38:08;5.57;;;5.07;;
32365;SDS011;18837;46.832;16.838;2023-05-29T04:40:37;6.13;;;4.47;;
32365;SDS011;18837;46.832;16.838;2023-05-29T04:43:02;5.70;;;5.10;;
32365;SDS011;18837;46.832;16.838;2023-05-29T04:45:30;5.93;;;4.70;;
32365;SDS011;18837;46.832;16.838;2023-05-29T04:47:56;6.00;;;4.47;;
32365;SDS011;18837;46.832;16.838;2023-05-29T04:50:22;5.40;;;4.90;;
32365;SDS011;18837;46.832;16.838;2023-05-29T04:52:48;5.73;;;4.80;;
32365;SDS011;18837;46.832;16.838;2023-05-29T04:55:14;5.87;;;5.20;;
32365;SDS011;18837;46.832;16.838;2023-05-29T04:57:41;6.17;;;5.00;;
32365;SDS011;18837;46.832;16.838;2023-05-29T05:00:07;5.40;;;4.90;;
32365;SDS011;18837;46.832;16.838;2023-05-29T05:02:39;5.70;;;5.10;;
32365;SDS011;18837;46.832;16.838;2023-05-29T05:05:10;6.37;;;5.10;;
32365;SDS011;18837;46.832;16.838;2023-05-29T05:07:37;6.67;;;4.97;;
32365;SDS011;18837;46.832;16.838;2023-05-29T05:10:03;5.53;;;4.90;;
32365;SDS011;18837;46.832;16.838;2023-05-29T05:12:29;5.87;;;5.30;;
32365;SDS011;18837;46.832;16.838;2023-05-29T05:14:55;5.40;;;4.40;;
32365;SDS011;18837;46.832;16.838;2023-05-29T05:17:21;5.47;;;4.83;;
32365;SDS011;18837;46.832;16.838;2023-05-29T05:19:47;5.83;;;5.03;;
32365;SDS011;18837;46.832;16.838;2023-05-29T05:22:14;5.50;;;4.90;;
32365;SDS011;18837;46.832;16.838;2023-05-29T05:24:40;7.27;;;4.97;;
32365;SDS011;18837;46.832;16.838;2023-05-29T05:27:06;6.20;;;4.47;;
32365;SDS011;18837;46.832;16.838;2023-05-29T05:29:32;5.70;;;5.10;;
32365;SDS011;18837;46.832;16.838;2023-05-29T05:31:57;5.97;;;4.90;;
32365;SDS011;18837;46.832;16.838;2023-05-29T05:34:23;5.60;;;4.97;;
32365;SDS011;18837;46.832;16.838;2023-05-29T05:36:49;5.93;;;4.90;;
32365;SDS011;18837;46.832;16.838;2023-05-29T05:39:15;6.27;;;5.00;;
32365;SDS011;18837;46.832;16.838;2023-05-29T05:41:41;5.60;;;4.87;;
32365;SDS011;18837;46.832;16.838;2023-05-29T05:44:07;5.37;;;4.47;;
32365;SDS011;18837;46.832;16.838;2023-05-29T05:46:33;6.53;;;5.13;;
32365;SDS011;18837;46.832;16.838;2023-05-29T05:48:59;7.17;;;4.77;;
32365;SDS011;18837;46.832;16.838;2023-05-29T05:51:25;5.30;;;4.73;;
32365;SDS011;18837;46.832;16.838;2023-05-29T05:53:52;5.43;;;4.67;;
32365;SDS011;18837;46.832;16.838;2023-05-29T05:56:18;5.27;;;4.50;;
32365;SDS011;18837;46.832;16.838;2023-05-29T05:58:44;5.87;;;4.37;;
32365;SDS011;18837;46.832;16.838;2023-05-29T06:01:10;5.60;;;4.50;;
32365;SDS011;18837;46.832;16.838;2023-05-29T06:03:35;5.13;;;4.63;;
32365;SDS011;18837;46.832;16.838;2023-05-29T06:06:02;6.70;;;4.90;;
32365;SDS011;18837;46.832;16.838;2023-05-29T06:08:28;6.40;;;4.90;;
32365;SDS011;18837;46.832;16.838;2023-05-29T06:10:55;6.07;;;4.63;;
32365;SDS011;18837;46.832;16.838;2023-05-29T06:13:21;5.50;;;4.67;;
32365;SDS011;18837;46.832;16.838;2023-05-29T06:15:47;5.03;;;4.53;;
32365;SDS011;18837;46.832;16.838;2023-05-29T06:18:13;5.33;;;4.23;;
32365;SDS011;18837;46.832;16.838;2023-05-29T06:20:38;6.67;;;4.30;;
32365;SDS011;18837;46.832;16.838;2023-05-29T06:23:04;5.33;;;4.53;;
32365;SDS011;18837;46.832;16.838;2023-05-29T06:25:30;4.80;;;4.30;;
32365;SDS011;18837;46.832;16.838;2023-05-29T06:27:59;6.50;;;4.93;;
32365;SDS011;18837;46.832;16.838;2023-05-29T06:30:26;5.00;;;4.30;;
32365;SDS011;18837;46.832;16.838;2023-05-29T06:32:52;5.63;;;4.50;;
32365;SDS011;18837;46.832;16.838;2023-05-29T06:35:17;6.07;;;4.53;;
32365;SDS011;18837;46.832;16.838;2023-05-29T06:37:44;6.33;;;4.50;;
32365;SDS011;18837;46.832;16.838;2023-05-29T06:40:11;5.90;;;4.23;;
32365;SDS011;18837;46.832;16.838;2023-05-29T06:42:37;5.33;;;4.23;;
32365;SDS011;18837;46.832;16.838;2023-05-29T06:45:03;5.33;;;4.60;;
32365;SDS011;18837;46.832;16.838;2023-05-29T06:47:29;5.77;;;3.97;;
32365;SDS011;18837;46.832;16.838;2023-05-29T06:49:55;6.87;;;4.30;;
32365;SDS011;18837;46.832;16.838;2023-05-29T06:52:21;4.77;;;4.17;;
32365;SDS011;18837;46.832;16.838;2023-05-29T06:54:47;4.60;;;4.03;;
32365;SDS011;18837;46.832;16.838;2023-05-29T06:57:13;4.30;;;3.90;;
32365;SDS011;18837;46.832;16.838;2023-05-29T06:59:38;5.27;;;4.37;;
32365;SDS011;18837;46.832;16.838;2023-05-29T07:02:04;4.30;;;3.90;;
32365;SDS011;18837;46.832;16.838;2023-05-29T07:04:32;4.87;;;4.40;;
32365;SDS011;18837;46.832;16.838;2023-05-29T07:06:57;5.67;;;3.93;;
32365;SDS011;18837;46.832;16.838;2023-05-29T07:09:23;4.73;;;4.30;;
32365;SDS011;18837;46.832;16.838;2023-05-29T07:11:50;4.30;;;3.87;;
32365;SDS011;18837;46.832;16.838;2023-05-29T07:14:16;4.80;;;4.20;;
32365;SDS011;18837;46.832;16.838;2023-05-29T07:16:41;6.15;;;4.68;;
32365;SDS011;18837;46.832;16.838;2023-05-29T07:19:07;5.27;;;4.47;;
32365;SDS011;18837;46.832;16.838;2023-05-29T07:21:33;11.43;;;4.33;;
32365;SDS011;18837;46.832;16.838;2023-05-29T07:23:59;7.40;;;4.73;;
32365;SDS011;18837;46.832;16.838;2023-05-29T07:26:26;6.47;;;4.80;;
32365;SDS011;18837;46.832;16.838;2023-05-29T07:28:52;12.07;;;3.83;;
32365;SDS011;18837;46.832;16.838;2023-05-29T07:31:17;15.17;;;5.37;;
32365;SDS011;18837;46.832;16.838;2023-05-29T07:33:43;9.27;;;4.67;;
32365;SDS011;18837;46.832;16.838;2023-05-29T07:36:09;11.47;;;5.07;;
32365;SDS011;18837;46.832;16.838;2023-05-29T07:38:35;6.80;;;4.60;;
32365;SDS011;18837;46.832;16.838;2023-05-29T07:41:01;8.50;;;4.50;;
32365;SDS011;18837;46.832;16.838;2023-05-29T07:43:27;7.20;;;4.40;;
32365;SDS011;18837;46.832;16.838;2023-05-29T07:45:53;9.00;;;4.40;;
32365;SDS011;18837;46.832;16.838;2023-05-29T07:48:18;9.07;;;4.20;;
32365;SDS011;18837;46.832;16.838;2023-05-29T07:50:44;6.30;;;4.10;;
32365;SDS011;18837;46.832;16.838;2023-05-29T07:53:11;7.23;;;4.43;;
32365;SDS011;18837;46.832;16.838;2023-05-29T07:55:37;7.13;;;4.10;;
32365;SDS011;18837;46.832;16.838;2023-05-29T07:58:03;6.07;;;4.20;;
32365;SDS011;18837;46.832;16.838;2023-05-29T08:00:28;7.93;;;4.77;;
32365;SDS011;18837;46.832;16.838;2023-05-29T08:02:54;5.70;;;3.93;;
32365;SDS011;18837;46.832;16.838;2023-05-29T08:05:22;7.43;;;4.70;;
32365;SDS011;18837;46.832;16.838;2023-05-29T08:07:47;6.60;;;3.90;;
32365;SDS011;18837;46.832;16.838;2023-05-29T08:10:13;5.03;;;3.83;;
32365;SDS011;18837;46.832;16.838;2023-05-29T08:12:42;7.27;;;4.23;;
32365;SDS011;18837;46.832;16.838;2023-05-29T08:15:08;6.00;;;3.90;;
32365;SDS011;18837;46.832;16.838;2023-05-29T08:17:34;5.43;;;4.13;;
32365;SDS011;18837;46.832;16.838;2023-05-29T08:20:00;6.23;;;4.23;;
32365;SDS011;18837;46.832;16.838;2023-05-29T08:22:28;7.60;;;4.40;;
32365;SDS011;18837;46.832;16.838;2023-05-29T08:24:55;9.27;;;4.50;;
32365;SDS011;18837;46.832;16.838;2023-05-29T08:27:20;6.17;;;4.60;;
32365;SDS011;18837;46.832;16.838;2023-05-29T08:29:46;5.93;;;3.97;;
32365;SDS011;18837;46.832;16.838;2023-05-29T08:32:12;4.87;;;4.00;;
32365;SDS011;18837;46.832;16.838;2023-05-29T08:34:38;6.00;;;4.00;;
32365;SDS011;18837;46.832;16.838;2023-05-29T08:37:03;5.10;;;3.87;;
32365;SDS011;18837;46.832;16.838;2023-05-29T08:39:30;6.77;;;4.30;;
32365;SDS011;18837;46.832;16.838;2023-05-29T08:44:30;7.00;;;4.00;;
32365;SDS011;18837;46.832;16.838;2023-05-29T08:47:01;6.83;;;4.00;;
32365;SDS011;18837;46.832;16.838;2023-05-29T08:49:29;7.17;;;4.17;;
32365;SDS011;18837;46.832;16.838;2023-05-29T08:52:16;5.23;;;4.40;;
32365;SDS011;18837;46.832;16.838;2023-05-29T08:54:43;7.87;;;4.40;;
32365;SDS011;18837;46.832;16.838;2023-05-29T08:57:13;6.47;;;3.90;;
32365;SDS011;18837;46.832;16.838;2023-05-29T08:59:39;4.67;;;4.07;;
32365;SDS011;18837;46.832;16.838;2023-05-29T09:02:09;5.50;;;4.23;;
32365;SDS011;18837;46.832;16.838;2023-05-29T09:04:35;5.17;;;4.43;;
32365;SDS011;18837;46.832;16.838;2023-05-29T09:07:01;5.20;;;3.87;;
32365;SDS011;18837;46.832;16.838;2023-05-29T09:09:28;7.97;;;4.10;;
32365;SDS011;18837;46.832;16.838;2023-05-29T09:11:56;4.97;;;3.77;;
32365;SDS011;18837;46.832;16.838;2023-05-29T09:14:33;6.03;;;4.10;;
32365;SDS011;18837;46.832;16.838;2023-05-29T09:17:04;4.80;;;4.20;;
32365;SDS011;18837;46.832;16.838;2023-05-29T09:19:31;4.80;;;3.93;;
32365;SDS011;18837;46.832;16.838;2023-05-29T09:22:01;4.27;;;3.60;;
32365;SDS011;18837;46.832;16.838;2023-05-29T09:24:29;5.90;;;4.20;;
32365;SDS011;18837;46.832;16.838;2023-05-29T09:26:56;6.80;;;4.33;;
32365;SDS011;18837;46.832;16.838;2023-05-29T09:29:23;7.47;;;4.17;;
32365;SDS011;18837;46.832;16.838;2023-05-29T09:31:50;5.37;;;3.83;;
32365;SDS011;18837;46.832;16.838;2023-05-29T09:34:16;5.60;;;4.40;;
32365;SDS011;18837;46.832;16.838;2023-05-29T09:36:42;5.93;;;4.30;;
32365;SDS011;18837;46.832;16.838;2023-05-29T09:39:07;9.40;;;4.30;;
32365;SDS011;18837;46.832;16.838;2023-05-29T09:41:41;6.13;;;4.10;;
32365;SDS011;18837;46.832;16.838;2023-05-29T09:44:07;5.43;;;4.10;;
32365;SDS011;18837;46.832;16.838;2023-05-29T09:46:35;5.07;;;4.17;;
32365;SDS011;18837;46.832;16.838;2023-05-29T09:49:02;7.27;;;4.50;;
32365;SDS011;18837;46.832;16.838;2023-05-29T09:51:30;7.20;;;4.40;;
32365;SDS011;18837;46.832;16.838;2023-05-29T09:53:56;7.50;;;4.63;;
32365;SDS011;18837;46.832;16.838;2023-05-29T09:56:26;7.57;;;4.43;;
32365;SDS011;18837;46.832;16.838;2023-05-29T09:58:53;6.17;;;4.60;;
32365;SDS011;18837;46.832;16.838;2023-05-29T10:01:21;8.40;;;4.57;;
32365;SDS011;18837;46.832;16.838;2023-05-29T10:03:48;6.67;;;4.40;;
32365;SDS011;18837;46.832;16.838;2023-05-29T10:06:16;5.60;;;4.53;;
32365;SDS011;18837;46.832;16.838;2023-05-29T10:08:46;11.70;;;4.93;;
32365;SDS011;18837;46.832;16.838;2023-05-29T10:11:19;8.20;;;4.47;;
32365;SDS011;18837;46.832;16.838;2023-05-29T10:13:51;7.83;;;4.27;;
32365;SDS011;18837;46.832;16.838;2023-05-29T10:16:20;6.20;;;4.37;;
32365;SDS011;18837;46.832;16.838;2023-05-29T10:18:49;6.13;;;4.43;;
32365;SDS011;18837;46.832;16.838;2023-05-29T10:21:21;6.20;;;4.43;;
32365;SDS011;18837;46.832;16.838;2023-05-29T10:23:48;7.07;;;4.20;;
32365;SDS011;18837;46.832;16.838;2023-05-29T10:26:18;5.70;;;4.50;;
32365;SDS011;18837;46.832;16.838;2023-05-29T10:28:49;6.83;;;4.57;;
32365;SDS011;18837;46.832;16.838;2023-05-29T10:31:33;8.40;;;4.87;;
32365;SDS011;18837;46.832;16.838;2023-05-29T10:37:40;9.03;;;4.80;;
32365;SDS011;18837;46.832;16.838;2023-05-29T10:40:11;6.20;;;4.50;;
32365;SDS011;18837;46.832;16.838;2023-05-29T10:42:48;7.50;;;4.83;;
32365;SDS011;18837;46.832;16.838;2023-05-29T10:47:56;4.67;;;4.17;;
32365;SDS011;18837;46.832;16.838;2023-05-29T10:50:37;5.43;;;4.03;;
32365;SDS011;18837;46.832;16.838;2023-05-29T10:53:08;6.43;;;4.47;;
32365;SDS011;18837;46.832;16.838;2023-05-29T10:55:38;6.87;;;4.70;;
32365;SDS011;18837;46.832;16.838;2023-05-29T10:58:07;6.00;;;4.97;;
32365;SDS011;18837;46.832;16.838;2023-05-29T11:00:45;8.10;;;4.80;;
32365;SDS011;18837;46.832;16.838;2023-05-29T11:03:19;6.53;;;4.60;;
32365;SDS011;18837;46.832;16.838;2023-05-29T11:05:59;6.60;;;4.53;;
32365;SDS011;18837;46.832;16.838;2023-05-29T11:13:53;6.30;;;4.43;;
32365;SDS011;18837;46.832;16.838;2023-05-29T11:19:07;5.73;;;4.83;;
32365;SDS011;18837;46.832;16.838;2023-05-29T11:21:49;6.33;;;4.17;;
32365;SDS011;18837;46.832;16.838;2023-05-29T11:24:27;6.07;;;4.37;;
32365;SDS011;18837;46.832;16.838;2023-05-29T11:26:55;8.20;;;4.77;;
32365;SDS011;18837;46.832;16.838;2023-05-29T11:29:27;7.40;;;4.97;;
32365;SDS011;18837;46.832;16.838;2023-05-29T11:31:55;7.30;;;4.67;;
32365;SDS011;18837;46.832;16.838;2023-05-29T11:34:27;5.07;;;4.57;;
32365;SDS011;18837;46.832;16.838;2023-05-29T11:36:56;4.77;;;4.27;;
32365;SDS011;18837;46.832;16.838;2023-05-29T11:39:23;5.73;;;4.73;;
32365;SDS011;18837;46.832;16.838;2023-05-29T11:41:50;7.63;;;4.80;;
32365;SDS011;18837;46.832;16.838;2023-05-29T11:44:17;8.17;;;5.20;;
32365;SDS011;18837;46.832;16.838;2023-05-29T11:46:43;5.23;;;4.73;;
32365;SDS011;18837;46.832;16.838;2023-05-29T11:49:09;4.53;;;4.03;;
32365;SDS011;18837;46.832;16.838;2023-05-29T11:51:34;9.27;;;4.60;;
32365;SDS011;18837;46.832;16.838;2023-05-29T11:54:01;7.20;;;5.00;;
32365;SDS011;18837;46.832;16.838;2023-05-29T11:56:27;7.23;;;4.90;;
32365;SDS011;18837;46.832;16.838;2023-05-29T11:58:54;4.93;;;4.43;;
32365;SDS011;18837;46.832;16.838;2023-05-29T12:01:21;5.70;;;4.67;;
32365;SDS011;18837;46.832;16.838;2023-05-29T12:03:48;5.27;;;4.70;;
32365;SDS011;18837;46.832;16.838;2023-05-29T12:06:15;6.20;;;4.73;;
32365;SDS011;18837;46.832;16.838;2023-05-29T12:08:41;5.00;;;4.07;;
32365;SDS011;18837;46.832;16.838;2023-05-29T12:11:07;5.83;;;4.70;;
32365;SDS011;18837;46.832;16.838;2023-05-29T12:13:33;5.13;;;4.37;;
32365;SDS011;18837;46.832;16.838;2023-05-29T12:16:00;5.30;;;4.53;;
32365;SDS011;18837;46.832;16.838;2023-05-29T12:18:28;9.17;;;4.87;;
32365;SDS011;18837;46.832;16.838;2023-05-29T12:20:58;6.53;;;4.70;;
32365;SDS011;18837;46.832;16.838;2023-05-29T12:23:28;6.77;;;4.60;;
32365;SDS011;18837;46.832;16.838;2023-05-29T12:25:54;6.23;;;4.67;;
32365;SDS011;18837;46.832;16.838;2023-05-29T12:28:21;5.57;;;4.40;;
32365;SDS011;18837;46.832;16.838;2023-05-29T12:30:47;5.03;;;3.83;;
32365;SDS011;18837;46.832;16.838;2023-05-29T12:36:11;6.40;;;4.80;;
32365;SDS011;18837;46.832;16.838;2023-05-29T12:38:50;6.20;;;4.63;;
32365;SDS011;18837;46.832;16.838;2023-05-29T12:41:27;7.33;;;4.50;;
32365;SDS011;18837;46.832;16.838;2023-05-29T12:44:00;8.60;;;5.27;;
32365;SDS011;18837;46.832;16.838;2023-05-29T12:46:27;5.60;;;5.00;;
32365;SDS011;18837;46.832;16.838;2023-05-29T12:49:15;8.50;;;4.67;;
32365;SDS011;18837;46.832;16.838;2023-05-29T12:51:44;6.57;;;4.73;;
32365;SDS011;18837;46.832;16.838;2023-05-29T12:54:11;7.07;;;5.60;;
32365;SDS011;18837;46.832;16.838;2023-05-29T12:56:38;5.87;;;5.17;;
32365;SDS011;18837;46.832;16.838;2023-05-29T12:59:06;7.13;;;4.93;;
32365;SDS011;18837;46.832;16.838;2023-05-29T13:01:32;6.10;;;5.40;;
32365;SDS011;18837;46.832;16.838;2023-05-29T13:03:59;5.83;;;4.97;;
32365;SDS011;18837;46.832;16.838;2023-05-29T13:06:25;6.57;;;5.07;;
32365;SDS011;18837;46.832;16.838;2023-05-29T13:08:51;6.10;;;5.07;;
32365;SDS011;18837;46.832;16.838;2023-05-29T13:11:17;7.87;;;5.40;;
32365;SDS011;18837;46.832;16.838;2023-05-29T13:13:43;6.50;;;5.00;;
32365;SDS011;18837;46.832;16.838;2023-05-29T13:16:09;5.70;;;5.10;;
32365;SDS011;18837;46.832;16.838;2023-05-29T13:18:37;5.77;;;4.80;;
32365;SDS011;18837;46.832;16.838;2023-05-29T13:21:04;5.13;;;4.63;;
32365;SDS011;18837;46.832;16.838;2023-05-29T13:23:30;5.30;;;4.67;;
32365;SDS011;18837;46.832;16.838;2023-05-29T13:25:56;6.37;;;5.23;;
32365;SDS011;18837;46.832;16.838;2023-05-29T13:28:23;5.20;;;4.70;;
32365;SDS011;18837;46.832;16.838;2023-05-29T13:30:49;6.13;;;4.70;;
32365;SDS011;18837;46.832;16.838;2023-05-29T13:33:15;6.77;;;5.27;;
32365;SDS011;18837;46.832;16.838;2023-05-29T13:35:40;6.13;;;4.93;;
32365;SDS011;18837;46.832;16.838;2023-05-29T13:38:06;5.80;;;4.90;;
32365;SDS011;18837;46.832;16.838;2023-05-29T13:40:32;7.07;;;5.10;;
32365;SDS011;18837;46.832;16.838;2023-05-29T13:42:58;6.33;;;5.00;;
32365;SDS011;18837;46.832;16.838;2023-05-29T13:45:25;7.40;;;5.23;;
32365;SDS011;18837;46.832;16.838;2023-05-29T13:47:53;5.87;;;5.27;;
32365;SDS011;18837;46.832;16.838;2023-05-29T13:50:20;6.47;;;5.10;;
32365;SDS011;18837;46.832;16.838;2023-05-29T13:52:48;5.97;;;4.83;;
32365;SDS011;18837;46.832;16.838;2023-05-29T13:55:14;5.83;;;4.97;;
32365;SDS011;18837;46.832;16.838;2023-05-29T13:57:40;5.33;;;4.83;;
32365;SDS011;18837;46.832;16.838;2023-05-29T14:00:08;6.03;;;5.40;;
32365;SDS011;18837;46.832;16.838;2023-05-29T14:02:36;5.77;;;5.17;;
32365;SDS011;18837;46.832;16.838;2023-05-29T14:05:02;6.60;;;5.20;;
32365;SDS011;18837;46.832;16.838;2023-05-29T14:07:28;7.20;;;5.10;;
32365;SDS011;18837;46.832;16.838;2023-05-29T14:09:54;8.13;;;5.40;;
32365;SDS011;18837;46.832;16.838;2023-05-29T14:12:20;6.20;;;4.80;;
32365;SDS011;18837;46.832;16.838;2023-05-29T14:14:46;7.40;;;5.43;;
32365;SDS011;18837;46.832;16.838;2023-05-29T14:17:13;5.60;;;5.00;;
32365;SDS011;18837;46.832;16.838;2023-05-29T14:19:39;5.37;;;4.50;;
32365;SDS011;18837;46.832;16.838;2023-05-29T14:22:07;6.83;;;5.50;;
32365;SDS011;18837;46.832;16.838;2023-05-29T14:24:32;5.07;;;4.57;;
32365;SDS011;18837;46.832;16.838;2023-05-29T14:26:58;6.50;;;5.27;;
32365;SDS011;18837;46.832;16.838;2023-05-29T14:29:24;5.77;;;5.17;;
32365;SDS011;18837;46.832;16.838;2023-05-29T14:31:50;6.43;;;5.23;;
32365;SDS011;18837;46.832;16.838;2023-05-29T14:34:16;5.00;;;4.50;;
32365;SDS011;18837;46.832;16.838;2023-05-29T14:36:42;6.17;;;4.90;;
32365;SDS011;18837;46.832;16.838;2023-05-29T14:39:09;5.90;;;5.20;;
32365;SDS011;18837;46.832;16.838;2023-05-29T14:41:36;6.60;;;5.23;;
32365;SDS011;18837;46.832;16.838;2023-05-29T14:44:02;7.77;;;4.93;;
32365;SDS011;18837;46.832;16.838;2023-05-29T14:46:28;6.43;;;5.33;;
32365;SDS011;18837;46.832;16.838;2023-05-29T14:48:57;6.13;;;5.53;;
32365;SDS011;18837;46.832;16.838;2023-05-29T14:51:23;6.60;;;4.73;;
32365;SDS011;18837;46.832;16.838;2023-05-29T14:53:49;5.73;;;4.60;;
32365;SDS011;18837;46.832;16.838;2023-05-29T14:56:15;6.23;;;5.27;;
32365;SDS011;18837;46.832;16.838;2023-05-29T14:58:43;6.17;;;5.27;;
32365;SDS011;18837;46.832;16.838;2023-05-29T15:01:09;6.13;;;5.00;;